createdAt,value
2019-05-19T00:03:39.585Z,10.99
2019-05-19T00:08:44.415Z,11.03
2019-05-19T00:13:49.320Z,11.14
2019-05-19T00:18:54.042Z,11.19
2019-05-19T00:23:59.869Z,11.25
2019-05-19T00:29:05.178Z,11.46
2019-05-19T00:34:09.836Z,11.60
2019-05-19T00:39:14.483Z,11.76
2019-05-19T00:44:19.415Z,11.81
2019-05-19T00:49:24.188Z,12.00
2019-05-19T00:54:28.835Z,12.00
2019-05-19T00:59:34.281Z,12.19
2019-05-19T01:04:39.022Z,12.28
2019-05-19T01:09:43.795Z,12.09
2019-05-19T01:14:48.580Z,12.21
2019-05-19T01:19:56.122Z,12.16
2019-05-19T01:24:59.911Z,12.25
2019-05-19T01:30:04.820Z,12.16
2019-05-19T01:35:10.353Z,12.04
2019-05-19T01:40:15.276Z,12.17
2019-05-19T01:45:20.145Z,12.08
2019-05-19T01:50:24.945Z,12.00
2019-05-19T01:55:29.742Z,11.98
2019-05-19T02:00:34.643Z,12.16
2019-05-19T02:05:39.322Z,12.25
2019-05-19T02:10:44.008Z,12.15
2019-05-19T02:15:48.756Z,12.21
2019-05-19T02:20:53.585Z,12.22
2019-05-19T02:25:58.281Z,12.22
2019-05-19T02:31:03.071Z,12.21
2019-05-19T02:36:07.842Z,12.13
2019-05-19T02:41:15.865Z,12.04
2019-05-19T02:46:21.116Z,11.99
2019-05-19T02:51:27.493Z,12.00
2019-05-19T02:56:32.990Z,12.02
2019-05-19T03:01:56.515Z,11.93
2019-05-19T03:07:01.367Z,11.89
2019-05-19T03:12:06.158Z,11.88
2019-05-19T03:17:11.020Z,11.98
2019-05-19T03:22:15.861Z,11.97
2019-05-19T03:27:20.608Z,11.91
2019-05-19T03:32:34.808Z,11.92
2019-05-19T03:37:39.660Z,11.95
2019-05-19T03:42:44.319Z,11.98
2019-05-19T03:47:49.011Z,11.86
2019-05-19T03:52:53.701Z,11.86
2019-05-19T03:57:58.412Z,11.94
2019-05-19T04:03:03.149Z,11.94
2019-05-19T04:08:07.844Z,11.91
2019-05-19T04:13:12.494Z,11.87
2019-05-19T04:18:17.335Z,11.92
2019-05-19T04:23:22.899Z,11.88
2019-05-19T04:28:27.879Z,11.83
2019-05-19T04:33:32.636Z,11.90
2019-05-19T04:38:37.280Z,11.89
2019-05-19T04:43:41.988Z,11.89
2019-05-19T04:48:46.806Z,11.79
2019-05-19T04:53:51.555Z,11.72
2019-05-19T04:58:56.336Z,11.71
2019-05-19T05:04:01.055Z,11.81
2019-05-19T05:09:06.886Z,11.83
2019-05-19T05:14:11.751Z,11.83
2019-05-19T05:19:16.573Z,11.86
2019-05-19T05:24:22.330Z,11.84
2019-05-19T05:29:27.009Z,11.78
2019-05-19T05:34:31.755Z,11.80
2019-05-19T05:39:36.530Z,11.81
2019-05-19T05:44:41.245Z,11.80
2019-05-19T05:49:45.970Z,11.80
2019-05-19T05:54:50.800Z,11.83
2019-05-19T05:59:55.438Z,11.83
2019-05-19T06:05:00.239Z,11.85
2019-05-19T06:10:05.405Z,11.92
2019-05-19T06:15:10.480Z,11.97
2019-05-19T06:20:15.431Z,11.98
2019-05-19T06:25:20.159Z,12.13
2019-05-19T06:30:24.933Z,12.31
2019-05-19T06:35:29.632Z,12.17
2019-05-19T06:40:34.397Z,12.05
2019-05-19T06:45:39.195Z,12.09
2019-05-19T06:50:43.842Z,12.13
2019-05-19T06:55:48.960Z,12.15
2019-05-19T07:00:53.695Z,12.29
2019-05-19T07:05:58.542Z,12.55
2019-05-19T07:11:03.245Z,12.60
2019-05-19T07:16:08.070Z,12.53
2019-05-19T07:21:12.783Z,12.58
2019-05-19T07:26:17.566Z,12.77
2019-05-19T07:31:22.845Z,12.78
2019-05-19T07:36:27.663Z,12.94
2019-05-19T07:41:32.282Z,13.05
2019-05-19T07:46:37.082Z,13.28
2019-05-19T07:51:42.659Z,13.47
2019-05-19T07:56:47.355Z,13.37
2019-05-19T08:01:52.080Z,13.62
2019-05-19T08:06:56.882Z,13.74
2019-05-19T08:12:01.655Z,13.34
2019-05-19T08:17:06.622Z,13.21
2019-05-19T08:22:11.891Z,13.26
2019-05-19T08:27:16.723Z,13.39
2019-05-19T08:32:21.521Z,13.53
2019-05-19T08:37:26.381Z,13.25
2019-05-19T08:42:31.151Z,13.27
2019-05-19T08:47:36.214Z,13.37
2019-05-19T08:52:41.305Z,13.02
2019-05-19T08:57:46.442Z,13.09
2019-05-19T09:02:51.262Z,13.25
2019-05-19T09:07:56.099Z,13.43
2019-05-19T09:13:00.964Z,13.56
2019-05-19T09:18:06.021Z,13.55
2019-05-19T09:23:10.862Z,13.62
2019-05-19T09:28:15.721Z,13.60
2019-05-19T09:33:20.603Z,13.30
2019-05-19T09:38:25.561Z,13.47
2019-05-19T09:43:30.514Z,13.69
2019-05-19T09:48:35.288Z,13.44
2019-05-19T09:53:40.141Z,13.18
2019-05-19T09:58:44.938Z,13.12
2019-05-19T10:03:49.801Z,13.49
2019-05-19T10:09:00.101Z,13.60
2019-05-19T10:14:05.304Z,13.40
2019-05-19T10:19:10.174Z,13.19
2019-05-19T10:24:15.118Z,13.19
2019-05-19T10:29:19.961Z,13.32
2019-05-19T10:34:24.783Z,13.21
2019-05-19T10:39:29.783Z,13.18
2019-05-19T10:44:34.626Z,13.16
2019-05-19T10:49:42.780Z,13.11
2019-05-19T10:54:46.111Z,13.51
2019-05-19T10:59:51.079Z,13.72
2019-05-19T11:04:55.903Z,13.88
2019-05-19T11:10:01.394Z,14.11
2019-05-19T11:15:07.541Z,13.97
2019-05-19T11:20:12.740Z,13.94
2019-05-19T11:25:32.691Z,14.15
2019-05-19T11:30:24.348Z,13.97
2019-05-19T11:35:29.302Z,14.08
2019-05-19T11:40:34.120Z,14.52
2019-05-19T11:45:38.923Z,14.64
2019-05-19T11:50:43.701Z,14.77
2019-05-19T11:55:48.865Z,15.26
2019-05-19T12:00:53.901Z,14.83
2019-05-19T12:05:58.850Z,14.46
2019-05-19T12:11:03.823Z,15.08
2019-05-19T12:16:08.765Z,16.28
2019-05-19T12:21:13.524Z,17.09
2019-05-19T12:26:23.225Z,17.21
2019-05-19T12:31:25.076Z,17.00
2019-05-19T12:36:30.002Z,17.88
2019-05-19T12:41:34.803Z,17.84
2019-05-19T12:46:39.647Z,16.83
2019-05-19T12:51:44.719Z,16.49
2019-05-19T12:56:49.685Z,16.38
2019-05-19T13:01:54.562Z,16.19
2019-05-19T13:06:59.386Z,16.26
2019-05-19T13:12:04.461Z,16.87
2019-05-19T13:17:09.557Z,16.91
2019-05-19T13:22:14.489Z,17.44
2019-05-19T13:27:19.326Z,17.32
2019-05-19T13:32:24.042Z,17.04
2019-05-19T13:37:28.844Z,16.77
2019-05-19T13:42:33.541Z,16.67
2019-05-19T13:47:38.562Z,16.26
2019-05-19T13:52:43.502Z,15.85
2019-05-19T13:57:48.338Z,15.84
2019-05-19T14:02:53.182Z,15.96
2019-05-19T14:07:58.394Z,15.99
2019-05-19T14:13:03.061Z,15.77
2019-05-19T14:18:07.841Z,15.77
2019-05-19T14:23:12.622Z,15.54
2019-05-19T14:28:17.394Z,15.48
2019-05-19T14:33:22.342Z,15.95
2019-05-19T14:38:27.121Z,16.36
2019-05-19T14:43:32.041Z,16.67
2019-05-19T14:48:36.931Z,16.23
2019-05-19T14:53:41.971Z,16.40
2019-05-19T14:58:46.741Z,16.42
2019-05-19T15:03:51.523Z,16.22
2019-05-19T15:08:56.522Z,15.88
2019-05-19T15:14:01.579Z,15.85
2019-05-19T15:19:06.464Z,15.69
2019-05-19T15:24:11.282Z,15.69
2019-05-19T15:29:16.204Z,15.11
2019-05-19T15:34:21.152Z,15.15
2019-05-19T15:39:26.094Z,15.06
2019-05-19T15:44:31.011Z,15.19
2019-05-19T15:49:35.873Z,15.39
2019-05-19T15:54:40.751Z,15.14
2019-05-19T15:59:45.747Z,15.42
2019-05-19T16:04:50.606Z,15.21
2019-05-19T16:09:55.422Z,15.00
2019-05-19T16:15:00.567Z,15.08
2019-05-19T16:20:05.959Z,14.71
2019-05-19T16:25:11.041Z,14.71
2019-05-19T16:30:16.089Z,14.64
2019-05-19T16:35:21.071Z,14.68
2019-05-19T16:40:25.977Z,14.32
2019-05-19T16:45:30.811Z,14.48
2019-05-19T16:50:35.747Z,14.64
2019-05-19T16:55:40.592Z,14.54
2019-05-19T17:00:45.704Z,14.28
2019-05-19T17:05:50.652Z,14.17
2019-05-19T17:10:55.532Z,14.19
2019-05-19T17:16:00.406Z,14.04
2019-05-19T17:21:05.324Z,13.75
2019-05-19T17:26:10.263Z,13.89
2019-05-19T17:31:15.043Z,13.45
2019-05-19T17:36:19.851Z,13.75
2019-05-19T17:41:24.662Z,13.79
2019-05-19T17:46:29.713Z,13.91
2019-05-19T17:51:34.573Z,13.84
2019-05-19T17:56:40.271Z,13.28
2019-05-19T18:01:45.053Z,13.10
2019-05-19T18:06:49.902Z,13.22
2019-05-19T18:11:54.721Z,13.14
2019-05-19T18:16:59.560Z,13.24
2019-05-19T18:22:04.521Z,13.15
2019-05-19T18:27:09.250Z,13.18
2019-05-19T18:32:14.366Z,13.21
2019-05-19T18:37:19.535Z,12.99
2019-05-19T18:42:25.178Z,12.99
2019-05-19T18:47:30.078Z,12.89
2019-05-19T18:52:35.058Z,13.11
2019-05-19T18:57:39.801Z,13.23
2019-05-19T19:02:44.541Z,13.06
2019-05-19T19:07:52.398Z,13.16
2019-05-19T19:12:57.335Z,12.61
2019-05-19T19:18:02.359Z,12.37
2019-05-19T19:23:07.201Z,12.03
2019-05-19T19:28:12.084Z,12.03
2019-05-19T19:33:16.768Z,11.89
2019-05-19T19:38:21.722Z,11.77
2019-05-19T19:43:26.740Z,11.51
2019-05-19T19:48:31.569Z,11.51
2019-05-19T19:53:36.398Z,11.43
2019-05-19T19:58:41.247Z,11.36
2019-05-19T20:03:46.211Z,11.41
2019-05-19T20:08:51.064Z,11.57
2019-05-19T20:13:55.924Z,11.71
2019-05-19T20:19:00.801Z,11.70
2019-05-19T20:24:05.767Z,11.69
2019-05-19T20:29:10.761Z,11.66
2019-05-19T20:34:15.611Z,11.62
2019-05-19T20:39:20.342Z,11.63
2019-05-19T20:44:25.379Z,11.68
2019-05-19T20:49:30.340Z,11.70
2019-05-19T20:54:35.121Z,11.73
2019-05-19T20:59:39.902Z,11.73
2019-05-19T21:04:44.661Z,11.72
2019-05-19T21:09:49.801Z,11.71
2019-05-19T21:14:54.603Z,11.69
2019-05-19T21:19:59.602Z,11.69
2019-05-19T21:25:04.710Z,11.71
2019-05-19T21:30:10.092Z,11.70
2019-05-19T21:35:14.978Z,11.62
2019-05-19T21:40:20.026Z,11.58
2019-05-19T21:45:25.002Z,11.62
2019-05-19T21:50:29.886Z,11.57
2019-05-19T21:55:34.951Z,11.54
2019-05-19T22:00:39.669Z,11.57
2019-05-19T22:05:52.796Z,11.60
2019-05-19T22:10:51.104Z,11.61
2019-05-19T22:16:11.687Z,11.55
2019-05-19T22:21:02.590Z,11.56
2019-05-19T22:26:07.515Z,11.49
2019-05-19T22:31:12.401Z,11.48
2019-05-19T22:36:17.141Z,11.25
2019-05-19T22:41:21.861Z,11.03
2019-05-19T22:46:26.582Z,10.89
2019-05-19T22:51:31.401Z,10.81
2019-05-19T22:56:36.271Z,10.74
2019-05-19T23:01:51.291Z,10.70
2019-05-19T23:06:47.965Z,10.66
2019-05-19T23:11:52.845Z,10.62
2019-05-19T23:16:57.721Z,10.60
2019-05-19T23:22:02.847Z,10.58
2019-05-19T23:27:07.670Z,10.61
2019-05-19T23:32:12.520Z,10.62
2019-05-19T23:37:17.541Z,10.57
2019-05-19T23:42:22.321Z,10.54
2019-05-19T23:47:27.111Z,10.53
2019-05-19T23:52:31.882Z,10.53
2019-05-19T23:57:36.778Z,10.50
